Time;durP1;ratioP1;P1;durP2;ratioP2;P2;SDS_P1;SDS_P2;PMS_P1;PMS_P2;Temp;Humidity;BMP_temperature;BMP_pressure;BME280_temperature;BME280_humidity;BME280_pressure;Samples;Min_cycle;Max_cycle;Signal;HPM_P1;HPM_P2
2023/05/20 00:00:01;;;;;;;;;;;;;;;14.38;100.00;99668.81;4372918;27;33969;-96
2023/05/20 00:03:19;;;;;;;;;;;;;;;14.46;100.00;99664.28;4374718;32;19991;-96
2023/05/20 00:06:07;;;;;;;;;;;;;;;14.55;100.00;99664.09;4368640;27;33132;-96
2023/05/20 00:09:02;;;;;;;;;;;;;;;14.28;100.00;99662.94;4370251;27;32453;-96
2023/05/20 00:12:00;;;;;;;;;;;;;;;14.87;99.66;99667.78;4367420;32;35558;-96
2023/05/20 00:15:11;;;;;;;;;;;;;;;14.20;100.00;99673.53;4328922;27;33720;-96
2023/05/20 00:18:14;;;;;;;;;;;;;;;14.29;100.00;99671.63;4373087;27;30217;-96
2023/05/20 00:21:16;;;;;;;;;;;;;;;14.40;100.00;99673.16;4314581;27;32888;-96
2023/05/20 00:23:57;;;;;;;;;;;;;;;14.57;99.98;99669.28;4353887;33;34905;-96
2023/05/20 00:27:02;;;;;;;;;;;;;;;14.72;100.00;99669.00;4312251;33;33583;-96
2023/05/20 00:29:45;;;;;;;;;;;;;;;14.71;100.00;99661.16;4355283;33;31753;-96
2023/05/20 00:32:50;;;;;;;;;;;;;;;14.67;100.00;99660.38;4326021;33;33940;-96
2023/05/20 00:35:36;;;;;;;;;;;;;;;14.74;100.00;99666.34;4371465;27;35007;-96
2023/05/20 00:38:36;;;;;;;;;;;;;;;14.72;100.00;99662.91;4318733;33;33224;-96
2023/05/20 00:41:20;;;;;;;;;;;;;;;15.03;100.00;99659.56;4350606;27;31702;-96
2023/05/20 00:44:22;;;;;;;;;;;;;;;14.96;100.00;99667.59;4362664;27;32478;-96
2023/05/20 00:47:20;;;;;;;;;;;;;;;15.14;100.00;99663.66;4348036;27;37472;-96
2023/05/20 00:50:45;;;;;;;;;;;;;;;15.24;100.00;99666.91;4321720;33;33780;-96
2023/05/20 00:53:31;;;;;;;;;;;;;;;15.66;100.00;99669.34;4385441;27;32891;-96
2023/05/20 00:56:37;;;;;;;;;;;;;;;15.10;100.00;99666.37;4316729;33;33123;-96
2023/05/20 00:59:37;;;;;;;;;;;;;;;15.24;100.00;99664.28;4373855;27;33728;-96
2023/05/20 01:02:41;;;;;;;;;;;;;;;15.25;100.00;99663.38;4310697;33;33610;-96
2023/05/20 01:05:38;;;;;;;;;;;;;;;15.49;100.00;99667.13;4301703;33;31658;-96
2023/05/20 01:08:55;;;;;;;;;;;;;;;15.22;100.00;99667.84;4398335;27;19987;-95
2023/05/20 01:15:16;;;;;;;;;;;;;;;14.97;100.00;99669.28;4397884;27;19999;-96
2023/05/20 01:18:29;;;;;;;;;;;;;;;15.04;100.00;99663.91;4332637;32;33148;-96
2023/05/20 01:21:31;;;;;;;;;;;;;;;14.94;100.00;99679.00;4375904;27;33805;-96
2023/05/20 01:24:27;;;;;;;;;;;;;;;14.91;100.00;99677.31;4362530;32;33760;-96
2023/05/20 01:28:03;;;;;;;;;;;;;;;14.88;100.00;99680.00;4322120;33;34588;-96
2023/05/20 01:30:56;;;;;;;;;;;;;;;14.93;99.72;99683.38;4356572;32;31783;-96
2023/05/20 01:33:57;;;;;;;;;;;;;;;14.74;100.00;99676.84;4359392;32;32739;-96
2023/05/20 01:36:59;;;;;;;;;;;;;;;14.62;100.00;99680.56;4330514;33;33873;-96
2023/05/20 01:40:12;;;;;;;;;;;;;;;14.79;100.00;99685.47;4331609;27;34921;31
2023/05/20 01:43:08;;;;;;;;;;;;;;;15.09;99.06;99678.63;4346449;27;31809;-96
2023/05/20 01:46:18;;;;;;;;;;;;;;;15.23;98.92;99670.44;4338593;33;31487;-96
2023/05/20 01:49:17;;;;;;;;;;;;;;;15.39;100.00;99675.28;4326214;33;34785;-96
2023/05/20 01:52:03;;;;;;;;;;;;;;;15.62;100.00;99679.94;4341589;32;33655;-96
2023/05/20 01:55:10;;;;;;;;;;;;;;;15.85;99.28;99685.50;4358515;27;33486;-96
2023/05/20 01:58:18;;;;;;;;;;;;;;;16.23;96.63;99683.56;4373128;27;33067;-96
2023/05/20 02:01:09;;;;;;;;;;;;;;;15.69;100.00;99674.50;4366794;32;33657;-96
2023/05/20 02:04:21;;;;;;;;;;;;;;;16.05;98.89;99671.81;4403807;27;33542;-96
2023/05/20 02:07:09;;;;;;;;;;;;;;;16.46;96.78;99672.38;4357475;32;30773;-96
2023/05/20 02:10:18;;;;;;;;;;;;;;;16.75;93.33;99675.91;4327774;33;33262;-96
2023/05/20 02:13:15;;;;;;;;;;;;;;;17.04;90.78;99674.16;4338328;33;33810;-96
2023/05/20 02:16:32;;;;;;;;;;;;;;;16.98;91.84;99674.38;4348187;33;34733;-96
2023/05/20 02:19:00;;;;;;;;;;;;;;;17.34;88.85;99671.47;4353523;33;33608;-96
2023/05/20 02:21:50;;;;;;;;;;;;;;;17.49;85.87;99675.34;4321897;33;34423;-96
2023/05/20 02:24:20;;;;;;;;;;;;;;;17.42;86.03;99670.28;4334567;33;33834;-96
2023/05/20 02:27:09;;;;;;;;;;;;;;;17.34;86.03;99682.00;4375050;27;34721;-96
2023/05/20 02:30:29;;;;;;;;;;;;;;;17.65;83.38;99667.78;4372054;27;31500;-96
2023/05/20 02:33:17;;;;;;;;;;;;;;;17.46;84.30;99673.69;4364652;27;33173;-96
2023/05/20 02:36:07;;;;;;;;;;;;;;;17.46;84.16;99676.31;4361522;32;34179;-96
2023/05/20 02:39:11;;;;;;;;;;;;;;;17.59;83.55;99675.00;4360985;32;33293;-96
2023/05/20 02:41:59;;;;;;;;;;;;;;;17.46;83.13;99670.19;4371521;32;32478;-96
2023/05/20 02:44:58;;;;;;;;;;;;;;;17.76;80.85;99673.53;4361273;32;33296;-96
2023/05/20 02:47:32;;;;;;;;;;;;;;;17.88;80.28;99678.41;4373121;32;33888;-96
2023/05/20 02:50:17;;;;;;;;;;;;;;;17.86;79.23;99676.72;4360470;32;34819;-96
2023/05/20 02:53:09;;;;;;;;;;;;;;;17.31;82.68;99671.56;4370542;32;33021;-96
2023/05/20 02:55:57;;;;;;;;;;;;;;;17.50;80.97;99666.53;4361692;32;33120;-96
2023/05/20 02:58:28;;;;;;;;;;;;;;;17.36;81.37;99667.84;4361286;33;34076;-96
2023/05/20 03:01:01;;;;;;;;;;;;;;;17.60;79.45;99668.81;4366711;27;33385;-96
2023/05/20 03:03:29;;;;;;;;;;;;;;;17.19;80.55;99673.69;4375807;32;33749;-96
2023/05/20 03:05:57;;;;;;;;;;;;;;;17.72;78.39;99678.06;4363539;32;34255;-96
2023/05/20 03:08:28;;;;;;;;;;;;;;;17.28;80.61;99674.28;4375115;32;34222;-96
2023/05/20 03:11:17;;;;;;;;;;;;;;;17.66;78.27;99672.13;4377920;27;33272;-96
2023/05/20 03:14:07;;;;;;;;;;;;;;;17.56;78.59;99677.72;4364568;27;32344;-96
2023/05/20 03:16:36;;;;;;;;;;;;;;;17.65;78.22;99673.91;4367173;27;34642;-96
2023/05/20 03:19:05;;;;;;;;;;;;;;;17.08;81.54;99683.69;4352178;27;36265;-96
2023/05/20 03:21:47;;;;;;;;;;;;;;;17.05;81.02;99681.16;4351931;27;33704;-96
2023/05/20 03:24:16;;;;;;;;;;;;;;;17.15;80.89;99689.63;4365359;27;33346;-96
2023/05/20 03:26:46;;;;;;;;;;;;;;;17.16;79.65;99689.56;4360089;33;34569;-96
2023/05/20 03:29:14;;;;;;;;;;;;;;;17.04;81.21;99688.19;4352436;27;33973;-96
2023/05/20 03:31:45;;;;;;;;;;;;;;;17.43;79.03;99690.44;4347520;33;34540;-95
2023/05/20 03:34:14;;;;;;;;;;;;;;;17.23;78.41;99691.09;4359398;32;32092;-96
2023/05/20 03:36:59;;;;;;;;;;;;;;;17.12;79.44;99698.47;4358643;32;33336;-96
2023/05/20 03:39:43;;;;;;;;;;;;;;;17.21;79.46;99692.91;4348381;33;33698;-96
2023/05/20 03:42:12;;;;;;;;;;;;;;;17.51;78.09;99695.44;4360309;32;34380;-95
2023/05/20 03:44:40;;;;;;;;;;;;;;;17.48;77.02;99695.53;4372101;32;33405;-96
2023/05/20 03:47:21;;;;;;;;;;;;;;;17.36;77.77;99701.22;4371838;32;34038;-96
2023/05/20 03:49:49;;;;;;;;;;;;;;;16.86;80.42;99699.28;4347777;33;34990;-96
2023/05/20 03:52:17;;;;;;;;;;;;;;;17.12;78.66;99698.47;4427581;27;33467;-96
2023/05/20 03:54:46;;;;;;;;;;;;;;;17.12;78.85;99703.75;4355499;27;33140;-96
2023/05/20 03:57:14;;;;;;;;;;;;;;;16.92;79.93;99691.19;4379495;27;34006;-96
2023/05/20 03:59:42;;;;;;;;;;;;;;;17.31;77.39;99700.50;4351387;27;34433;-94
2023/05/20 04:02:17;;;;;;;;;;;;;;;17.36;76.16;99699.44;4348485;27;33249;-96
2023/05/20 04:05:00;;;;;;;;;;;;;;;17.52;76.18;99712.94;4369264;32;32577;-96
2023/05/20 04:07:29;;;;;;;;;;;;;;;17.64;77.76;99716.97;4368776;32;34232;-96
2023/05/20 04:09:58;;;;;;;;;;;;;;;17.95;75.85;99722.06;4369174;32;36094;-96
2023/05/20 04:12:29;;;;;;;;;;;;;;;18.18;72.40;99715.12;4369353;32;34897;-96
2023/05/20 04:15:02;;;;;;;;;;;;;;;18.56;71.16;99718.13;4347583;33;33695;-96
2023/05/20 04:18:12;;;;;;;;;;;;;;;18.35;72.91;99725.94;4362796;32;33364;-96
2023/05/20 04:20:51;;;;;;;;;;;;;;;18.19;73.51;99728.25;4357919;32;35266;-96
2023/05/20 04:23:23;;;;;;;;;;;;;;;18.38;71.86;99728.44;4346382;33;35302;-96
2023/05/20 04:25:54;;;;;;;;;;;;;;;18.36;72.94;99730.28;4347188;33;33398;-95
2023/05/20 04:28:22;;;;;;;;;;;;;;;18.83;68.70;99732.09;4365593;27;34783;-96
2023/05/20 04:31:03;;;;;;;;;;;;;;;18.65;70.66;99730.94;4364809;32;34585;-96
2023/05/20 04:33:52;;;;;;;;;;;;;;;18.62;70.50;99738.12;4367296;32;33349;-96
2023/05/20 04:36:21;;;;;;;;;;;;;;;18.95;66.90;99736.00;4376717;32;33375;-96
2023/05/20 04:38:50;;;;;;;;;;;;;;;19.12;66.33;99736.22;4377091;32;34062;-96
2023/05/20 04:41:35;;;;;;;;;;;;;;;19.28;65.56;99736.47;4366159;32;34384;-96
2023/05/20 04:44:21;;;;;;;;;;;;;;;19.22;66.80;99739.34;4366409;32;34947;-96
2023/05/20 04:47:18;;;;;;;;;;;;;;;19.29;64.83;99745.25;4407163;27;33265;-96
2023/05/20 04:50:30;;;;;;;;;;;;;;;19.44;64.88;99739.34;4467186;27;33896;-96
2023/05/20 04:53:24;;;;;;;;;;;;;;;19.87;63.95;99732.31;4390327;27;35641;-96
2023/05/20 04:56:21;;;;;;;;;;;;;;;19.54;64.60;99738.97;4361764;32;34036;-96
2023/05/20 04:59:06;;;;;;;;;;;;;;;19.33;64.70;99737.13;4358915;27;32920;-96
2023/05/20 05:01:37;;;;;;;;;;;;;;;19.61;65.29;99730.72;4368566;27;31877;-96
2023/05/20 05:04:28;;;;;;;;;;;;;;;19.77;64.05;99730.97;4416295;27;35451;-96
2023/05/20 05:07:58;;;;;;;;;;;;;;;19.96;62.09;99722.25;4377109;27;20046;-96
2023/05/20 05:10:44;;;;;;;;;;;;;;;20.14;64.87;99718.81;4348941;32;32502;-96
2023/05/20 05:13:16;;;;;;;;;;;;;;;19.62;65.84;99723.66;4387713;27;33620;-96
2023/05/20 05:16:18;;;;;;;;;;;;;;;20.16;63.07;99727.53;4359535;27;34173;-96
2023/05/20 05:19:45;;;;;;;;;;;;;;;20.26;61.77;99736.78;4333423;33;33903;-96
2023/05/20 05:23:02;;;;;;;;;;;;;;;20.41;60.12;99729.94;4550477;27;32263;-96
2023/05/20 05:26:04;;;;;;;;;;;;;;;21.17;56.84;99732.59;4310204;33;32793;-96
2023/05/20 05:29:18;;;;;;;;;;;;;;;21.24;58.56;99741.13;4316578;33;20012;-96
2023/05/20 05:32:24;;;;;;;;;;;;;;;21.26;57.45;99741.91;4385244;27;34159;-96
2023/05/20 05:35:35;;;;;;;;;;;;;;;21.05;59.27;99732.34;4358336;27;33893;-96
2023/05/20 05:38:59;;;;;;;;;;;;;;;20.10;62.43;99735.75;4377848;27;35324;-96
2023/05/20 05:42:14;;;;;;;;;;;;;;;21.23;57.39;99741.19;4358121;32;36091;-96
2023/05/20 05:44:50;;;;;;;;;;;;;;;21.59;56.97;99743.88;4327367;33;34062;-96
2023/05/20 05:48:06;;;;;;;;;;;;;;;21.73;55.57;99744.03;4316242;33;20000;-96
2023/05/20 05:51:11;;;;;;;;;;;;;;;22.07;54.82;99744.09;4292875;33;33687;-96
2023/05/20 05:54:19;;;;;;;;;;;;;;;22.14;56.64;99748.16;4348274;33;20039;-96
2023/05/20 05:58:36;;;;;;;;;;;;;;;22.66;54.58;99763.13;4308425;33;20044;-96
2023/05/20 06:01:22;;;;;;;;;;;;;;;22.49;53.75;99754.28;4323895;27;33149;-96
2023/05/20 06:04:28;;;;;;;;;;;;;;;22.09;54.90;99752.81;4361246;32;34909;-96
2023/05/20 06:07:54;;;;;;;;;;;;;;;22.18;55.08;99746.19;4297647;33;33762;-96
2023/05/20 06:10:59;;;;;;;;;;;;;;;22.72;54.06;99750.37;4333718;32;33408;-96
2023/05/20 06:14:20;;;;;;;;;;;;;;;23.37;49.18;99756.59;4363959;27;34459;-96
2023/05/20 06:17:23;;;;;;;;;;;;;;;23.55;49.20;99752.03;4396608;27;19978;-96
2023/05/20 06:20:12;;;;;;;;;;;;;;;23.41;49.22;99747.50;4382032;27;34731;-96
2023/05/20 06:23:21;;;;;;;;;;;;;;;23.60;50.56;99749.97;4305387;33;33648;-96
2023/05/20 06:26:28;;;;;;;;;;;;;;;24.09;49.02;99740.88;4420083;27;19998;-96
2023/05/20 06:29:43;;;;;;;;;;;;;;;24.51;46.10;99733.87;4370607;32;33929;-96
2023/05/20 06:32:38;;;;;;;;;;;;;;;24.08;46.87;99739.19;4359816;32;34942;-96
2023/05/20 06:35:13;;;;;;;;;;;;;;;24.09;46.83;99743.53;4346846;32;36038;-96
2023/05/20 06:38:18;;;;;;;;;;;;;;;24.17;47.23;99746.59;4350486;33;34230;-96
2023/05/20 06:40:51;;;;;;;;;;;;;;;24.34;47.30;99741.13;4357662;32;35065;-96
2023/05/20 06:43:33;;;;;;;;;;;;;;;24.61;45.61;99743.03;4383603;27;35374;-96
2023/05/20 06:46:25;;;;;;;;;;;;;;;24.57;46.37;99737.06;4425639;27;34943;-96
2023/05/20 06:49:21;;;;;;;;;;;;;;;24.95;46.81;99735.56;4360066;32;33171;-96
2023/05/20 06:51:51;;;;;;;;;;;;;;;24.26;49.01;99731.88;4360194;32;33171;-96
2023/05/20 06:54:46;;;;;;;;;;;;;;;24.64;46.26;99736.69;4369000;32;33522;-96
2023/05/20 06:57:27;;;;;;;;;;;;;;;24.49;47.64;99727.81;4360315;32;34618;-96
2023/05/20 06:59:58;;;;;;;;;;;;;;;24.38;46.49;99731.97;4372524;32;31896;-96
2023/05/20 07:03:10;;;;;;;;;;;;;;;25.15;44.46;99727.16;4371914;32;35211;-96
2023/05/20 07:05:39;;;;;;;;;;;;;;;25.03;46.80;99733.28;4357603;32;35174;-96
2023/05/20 07:08:17;;;;;;;;;;;;;;;25.01;45.09;99726.31;4358888;32;33695;-96
2023/05/20 07:11:28;;;;;;;;;;;;;;;25.74;42.59;99723.31;4373267;32;33433;-96
2023/05/20 07:14:16;;;;;;;;;;;;;;;24.90;46.17;99725.22;4369342;32;34632;-96
2023/05/20 07:16:50;;;;;;;;;;;;;;;25.32;45.66;99727.88;4380806;32;35407;-96
2023/05/20 07:19:40;;;;;;;;;;;;;;;25.34;48.51;99721.50;4359882;32;33406;-96
2023/05/20 07:22:17;;;;;;;;;;;;;;;25.40;45.75;99717.59;4369763;32;32318;-96
2023/05/20 07:24:47;;;;;;;;;;;;;;;26.13;43.99;99712.72;4344139;32;32771;-96
2023/05/20 07:27:16;;;;;;;;;;;;;;;25.47;43.14;99705.53;4366334;32;35982;-96
2023/05/20 07:29:49;;;;;;;;;;;;;;;24.90;44.14;99708.38;4358876;32;33445;-96
2023/05/20 07:32:23;;;;;;;;;;;;;;;25.60;42.94;99702.91;4355773;32;33539;-96
2023/05/20 07:35:26;;;;;;;;;;;;;;;25.63;43.26;99708.03;4405398;27;32571;31
2023/05/20 07:38:34;;;;;;;;;;;;;;;26.58;42.03;99705.94;4356548;32;33364;-96
2023/05/20 07:41:27;;;;;;;;;;;;;;;27.04;40.71;99705.31;4362308;32;34688;-96
2023/05/20 07:44:13;;;;;;;;;;;;;;;26.24;44.18;99704.78;4357821;33;33797;-96
2023/05/20 07:46:55;;;;;;;;;;;;;;;26.98;41.67;99713.75;4355294;33;35007;-96
2023/05/20 07:49:30;;;;;;;;;;;;;;;26.83;41.56;99704.22;4343123;33;35123;-96
2023/05/20 07:52:07;;;;;;;;;;;;;;;27.37;40.89;99710.97;4355433;33;33601;-96
2023/05/20 07:54:59;;;;;;;;;;;;;;;27.18;39.96;99711.47;4335155;33;33539;-96
2023/05/20 07:57:35;;;;;;;;;;;;;;;27.37;40.15;99706.50;4354130;33;34322;-96
2023/05/20 08:00:03;;;;;;;;;;;;;;;26.76;43.98;99709.13;4355386;33;35111;-96
2023/05/20 08:02:32;;;;;;;;;;;;;;;26.60;42.90;99701.34;4352531;33;33611;-96
2023/05/20 08:05:11;;;;;;;;;;;;;;;26.65;43.66;99703.72;4338609;33;32664;-96
2023/05/20 08:07:40;;;;;;;;;;;;;;;26.67;41.38;99707.12;4350862;33;34367;-96
2023/05/20 08:10:11;;;;;;;;;;;;;;;27.28;39.32;99706.31;4339184;33;34114;-96
2023/05/20 08:12:40;;;;;;;;;;;;;;;27.19;38.97;99697.13;4348822;33;32931;-96
2023/05/20 08:15:08;;;;;;;;;;;;;;;27.34;41.30;99700.53;4338969;33;31976;-96
2023/05/20 08:17:39;;;;;;;;;;;;;;;26.76;40.10;99701.13;4349927;33;34360;-96
2023/05/20 08:20:08;;;;;;;;;;;;;;;27.22;40.50;99699.56;4350275;33;35183;-95
2023/05/20 08:22:36;;;;;;;;;;;;;;;27.19;41.94;99700.62;4351838;33;35718;-96
2023/05/20 08:25:08;;;;;;;;;;;;;;;26.82;40.84;99691.81;4351714;33;33389;-96
2023/05/20 08:27:36;;;;;;;;;;;;;;;26.96;42.08;99686.31;4361537;32;34089;-95
2023/05/20 08:30:08;;;;;;;;;;;;;;;27.40;43.42;99681.31;4361818;32;35208;-96
2023/05/20 08:32:36;;;;;;;;;;;;;;;26.63;42.56;99687.81;4349348;33;34678;-96
2023/05/20 08:35:06;;;;;;;;;;;;;;;26.97;40.21;99684.50;4326245;33;31948;-96
2023/05/20 08:37:41;;;;;;;;;;;;;;;26.84;39.09;99679.19;4362710;32;34141;-96
2023/05/20 08:40:13;;;;;;;;;;;;;;;27.64;38.01;99681.28;4350724;33;34126;-96
2023/05/20 08:42:53;;;;;;;;;;;;;;;27.51;38.52;99677.81;4337979;33;33789;-96
2023/05/20 08:45:26;;;;;;;;;;;;;;;27.31;40.66;99674.84;4337634;33;32173;-96
2023/05/20 08:47:54;;;;;;;;;;;;;;;27.37;42.63;99679.75;4350529;33;34496;-96
2023/05/20 08:50:27;;;;;;;;;;;;;;;27.68;40.41;99671.19;4351522;33;36189;-96
2023/05/20 08:52:57;;;;;;;;;;;;;;;27.84;37.36;99671.72;4356662;33;34533;-96
2023/05/20 08:55:39;;;;;;;;;;;;;;;27.66;37.74;99665.13;4349078;33;33395;-95
2023/05/20 08:58:07;;;;;;;;;;;;;;;27.32;40.41;99675.69;4349475;33;34884;-96
2023/05/20 09:00:37;;;;;;;;;;;;;;;28.07;37.78;99679.81;4354205;33;34356;-96
2023/05/20 09:03:14;;;;;;;;;;;;;;;27.18;41.59;99668.69;4354184;32;34454;-96
2023/05/20 09:05:44;;;;;;;;;;;;;;;26.98;40.92;99670.16;4327382;33;31982;-96
2023/05/20 09:08:13;;;;;;;;;;;;;;;27.82;39.01;99671.00;4351377;33;34219;-96
2023/05/20 09:10:41;;;;;;;;;;;;;;;26.83;39.01;99664.13;4363524;32;35972;-95
2023/05/20 09:13:11;;;;;;;;;;;;;;;27.45;38.18;99664.94;4341247;33;34838;-96
2023/05/20 09:15:39;;;;;;;;;;;;;;;28.27;37.52;99668.41;4363600;32;32312;-96
2023/05/20 09:18:07;;;;;;;;;;;;;;;28.42;38.75;99663.63;4351212;33;33519;-96
2023/05/20 09:20:39;;;;;;;;;;;;;;;28.21;41.82;99662.66;4366641;32;35385;-96
2023/05/20 09:23:08;;;;;;;;;;;;;;;28.75;35.94;99651.19;4351878;33;33113;-96
2023/05/20 09:25:36;;;;;;;;;;;;;;;28.50;36.54;99652.28;4341083;33;33537;-95
2023/05/20 09:28:15;;;;;;;;;;;;;;;27.89;40.71;99661.50;4351966;33;33236;-96
2023/05/20 09:30:48;;;;;;;;;;;;;;;28.22;42.06;99659.00;4353090;33;35355;-95
2023/05/20 09:33:17;;;;;;;;;;;;;;;28.63;40.72;99646.84;4353724;32;34728;-96
2023/05/20 09:35:45;;;;;;;;;;;;;;;29.35;35.96;99651.63;4353899;33;32471;-96
2023/05/20 09:38:14;;;;;;;;;;;;;;;29.58;35.18;99652.34;4353116;33;32562;-95
2023/05/20 09:40:42;;;;;;;;;;;;;;;29.28;37.38;99643.25;4365689;32;36103;-96
2023/05/20 09:43:19;;;;;;;;;;;;;;;29.43;38.05;99635.72;4354283;33;33396;-96
2023/05/20 09:46:33;;;;;;;;;;;;;;;29.41;34.40;99647.56;4339234;33;33436;-94
2023/05/20 09:49:01;;;;;;;;;;;;;;;28.95;36.58;99629.94;4361977;32;34973;-93
2023/05/20 09:51:31;;;;;;;;;;;;;;;28.68;39.25;99620.53;4362624;32;35249;-93
2023/05/20 09:53:59;;;;;;;;;;;;;;;28.85;35.34;99619.13;4354201;33;33396;-93
2023/05/20 09:56:27;;;;;;;;;;;;;;;29.07;35.77;99618.19;4352494;33;32260;-95
2023/05/20 09:58:57;;;;;;;;;;;;;;;29.50;34.43;99628.00;4341670;33;34990;-92
2023/05/20 10:01:25;;;;;;;;;;;;;;;28.67;35.04;99610.78;4352373;33;35394;-92
2023/05/20 10:03:55;;;;;;;;;;;;;;;29.01;36.80;99621.38;4351347;33;34511;-95
2023/05/20 10:06:40;;;;;;;;;;;;;;;28.67;34.86;99605.41;4378018;27;33576;-94
2023/05/20 10:09:22;;;;;;;;;;;;;;;29.19;35.09;99608.28;4356020;33;33974;-93
2023/05/20 10:12:08;;;;;;;;;;;;;;;29.68;35.87;99610.34;4354521;33;35189;-91
2023/05/20 10:14:41;;;;;;;;;;;;;;;29.15;34.67;99605.00;4367842;27;35039;-93
2023/05/20 10:17:16;;;;;;;;;;;;;;;29.37;36.49;99603.22;4345180;32;33545;-94
2023/05/20 10:19:45;;;;;;;;;;;;;;;30.07;34.65;99601.62;4359086;32;34118;-93
2023/05/20 10:22:13;;;;;;;;;;;;;;;30.27;32.71;99605.25;4356206;32;34959;-93
2023/05/20 10:24:42;;;;;;;;;;;;;;;29.38;33.07;99604.91;4356489;32;34623;-95
2023/05/20 10:27:28;;;;;;;;;;;;;;;29.88;33.38;99591.69;4369382;32;33410;-94
2023/05/20 10:29:57;;;;;;;;;;;;;;;29.80;34.60;99594.16;4370799;32;34534;-94
2023/05/20 10:32:31;;;;;;;;;;;;;;;29.40;35.61;99592.19;4356159;32;35301;-93
2023/05/20 10:35:03;;;;;;;;;;;;;;;29.76;33.05;99595.44;4359080;32;35097;-93
2023/05/20 10:37:47;;;;;;;;;;;;;;;29.57;34.13;99593.44;4359797;32;33168;-93
2023/05/20 10:40:19;;;;;;;;;;;;;;;29.49;35.04;99583.38;4370120;32;34882;-93
2023/05/20 10:42:48;;;;;;;;;;;;;;;30.08;31.54;99581.00;4357031;32;35257;-94
2023/05/20 10:45:26;;;;;;;;;;;;;;;29.72;33.10;99591.25;4369917;32;34464;-94
2023/05/20 10:47:58;;;;;;;;;;;;;;;29.90;34.21;99581.66;4367063;32;33205;-93
2023/05/20 10:50:35;;;;;;;;;;;;;;;30.40;33.22;99576.31;4369873;32;34882;-93
2023/05/20 10:53:05;;;;;;;;;;;;;;;30.15;32.69;99566.06;4360460;32;35122;-93
2023/05/20 10:55:48;;;;;;;;;;;;;;;30.09;32.66;99559.41;4346062;32;34050;-92
2023/05/20 10:59:02;;;;;;;;;;;;;;;29.28;34.91;99570.81;4392648;27;32304;-92
2023/05/20 11:01:36;;;;;;;;;;;;;;;29.87;32.68;99573.84;4374908;27;34906;-93
2023/05/20 11:04:06;;;;;;;;;;;;;;;30.52;29.70;99578.91;4366880;32;35218;-93
2023/05/20 11:06:48;;;;;;;;;;;;;;;29.92;30.17;99574.31;4355194;33;34857;-94
2023/05/20 11:09:26;;;;;;;;;;;;;;;29.86;29.73;99566.78;4366096;32;33811;-92
2023/05/20 11:12:05;;;;;;;;;;;;;;;29.83;30.87;99562.53;4379582;32;34031;-93
2023/05/20 11:14:34;;;;;;;;;;;;;;;29.76;31.11;99561.38;4355942;33;37498;-94
2023/05/20 11:17:02;;;;;;;;;;;;;;;30.06;30.48;99556.97;4368465;32;34880;-96
2023/05/20 11:19:31;;;;;;;;;;;;;;;30.54;31.51;99558.94;4356536;33;34503;-96
2023/05/20 11:22:03;;;;;;;;;;;;;;;30.15;31.61;99549.94;4359105;33;34311;-93
2023/05/20 11:24:35;;;;;;;;;;;;;;;30.28;28.54;99547.84;4358498;33;35520;-92
2023/05/20 11:27:06;;;;;;;;;;;;;;;30.18;30.98;99545.13;4368615;32;34670;-93
2023/05/20 11:29:35;;;;;;;;;;;;;;;29.67;31.56;99554.09;4374253;27;32918;-96
2023/05/20 11:32:04;;;;;;;;;;;;;;;29.83;31.47;99551.81;4372995;32;35209;-95
2023/05/20 11:34:41;;;;;;;;;;;;;;;29.84;31.44;99547.28;4376379;27;35072;-92
2023/05/20 11:37:16;;;;;;;;;;;;;;;30.17;30.11;99537.22;4370190;32;34864;-92
2023/05/20 11:40:12;;;;;;;;;;;;;;;30.34;31.87;99536.59;4371638;32;34267;-96
2023/05/20 11:42:43;;;;;;;;;;;;;;;30.43;29.23;99538.44;4369212;32;34923;-93
2023/05/20 11:45:12;;;;;;;;;;;;;;;30.30;31.99;99543.16;4368300;32;35386;-96
2023/05/20 11:47:40;;;;;;;;;;;;;;;30.62;27.39;99542.16;4369178;32;35133;-93
2023/05/20 11:50:08;;;;;;;;;;;;;;;29.81;30.01;99542.19;4364200;32;34111;-93
2023/05/20 11:52:36;;;;;;;;;;;;;;;30.29;29.40;99541.47;4362693;32;34954;-93
2023/05/20 11:55:04;;;;;;;;;;;;;;;29.75;30.50;99540.00;4364827;32;35054;-94
2023/05/20 11:57:33;;;;;;;;;;;;;;;30.34;31.10;99533.91;4368655;27;34881;-93
2023/05/20 12:00:06;;;;;;;;;;;;;;;30.14;30.34;99526.75;4375833;32;32977;-95
2023/05/20 12:02:34;;;;;;;;;;;;;;;29.98;29.78;99538.84;4362663;32;34229;-93
2023/05/20 12:05:03;;;;;;;;;;;;;;;30.07;29.40;99521.06;4363963;32;34926;-92
2023/05/20 12:07:31;;;;;;;;;;;;;;;29.04;30.56;99522.75;4375377;32;35005;-93
2023/05/20 12:09:59;;;;;;;;;;;;;;;29.14;31.75;99520.16;4364849;32;33282;-93
2023/05/20 12:12:27;;;;;;;;;;;;;;;29.00;34.13;99518.66;4364043;32;34116;-93
2023/05/20 12:14:57;;;;;;;;;;;;;;;29.39;33.23;99534.19;4364706;32;34949;-96
2023/05/20 12:17:25;;;;;;;;;;;;;;;29.61;31.72;99528.63;4363880;32;34561;-96
2023/05/20 12:19:53;;;;;;;;;;;;;;;29.79;30.71;99531.59;4363038;32;34046;-96
2023/05/20 12:22:21;;;;;;;;;;;;;;;29.64;32.48;99525.69;4349466;32;32893;-93
2023/05/20 12:24:49;;;;;;;;;;;;;;;29.56;32.60;99522.84;4362321;32;36222;-93
2023/05/20 12:27:20;;;;;;;;;;;;;;;29.33;31.76;99515.91;4374228;32;35376;-93
2023/05/20 12:29:48;;;;;;;;;;;;;;;29.35;32.21;99520.19;4374497;32;34014;-93
2023/05/20 12:32:16;;;;;;;;;;;;;;;29.37;32.72;99518.22;4373979;32;34953;-93
2023/05/20 12:34:44;;;;;;;;;;;;;;;29.01;33.97;99508.78;4364668;32;34960;-95
2023/05/20 12:37:12;;;;;;;;;;;;;;;29.62;33.29;99503.50;4362122;32;33786;-95
2023/05/20 12:39:41;;;;;;;;;;;;;;;29.58;33.88;99509.25;4362389;32;33279;-94
2023/05/20 12:42:12;;;;;;;;;;;;;;;29.69;31.04;99512.72;4363121;32;33002;-94
2023/05/20 12:44:41;;;;;;;;;;;;;;;29.82;32.76;99506.28;4369143;32;36031;-95
2023/05/20 12:47:09;;;;;;;;;;;;;;;30.13;34.86;99509.78;4361656;32;35368;-93
2023/05/20 12:49:37;;;;;;;;;;;;;;;30.47;32.04;99504.06;4369443;32;33494;-95
2023/05/20 12:52:05;;;;;;;;;;;;;;;29.32;34.99;99504.34;4348844;32;33331;-94
2023/05/20 12:54:45;;;;;;;;;;;;;;;29.60;33.58;99500.09;4357855;32;34391;-93
2023/05/20 12:57:13;;;;;;;;;;;;;;;29.48;31.58;99495.81;4368035;32;34590;-94
2023/05/20 12:59:41;;;;;;;;;;;;;;;29.64;32.67;99496.16;4372814;32;33828;-94
2023/05/20 13:02:09;;;;;;;;;;;;;;;29.17;32.03;99500.31;4366976;32;34962;-93
2023/05/20 13:04:37;;;;;;;;;;;;;;;29.23;34.01;99489.91;4365524;32;36095;-94
2023/05/20 13:07:05;;;;;;;;;;;;;;;29.61;32.21;99480.31;4367996;32;34680;-93
2023/05/20 13:09:33;;;;;;;;;;;;;;;29.75;31.22;99476.47;4375322;32;33271;-93
2023/05/20 13:12:01;;;;;;;;;;;;;;;29.52;32.57;99491.03;4348342;32;31619;-96
2023/05/20 13:14:29;;;;;;;;;;;;;;;29.57;31.78;99472.69;4349886;32;34895;-94
2023/05/20 13:16:57;;;;;;;;;;;;;;;28.82;32.86;99478.19;4368267;32;34716;-93
2023/05/20 13:19:25;;;;;;;;;;;;;;;28.55;32.82;99479.53;4375005;32;33417;-92
2023/05/20 13:21:53;;;;;;;;;;;;;;;28.74;34.48;99467.25;4378740;32;34653;-92
2023/05/20 13:24:22;;;;;;;;;;;;;;;28.99;33.07;99463.31;4377835;32;34894;-93
2023/05/20 13:26:51;;;;;;;;;;;;;;;29.06;34.77;99460.97;4379838;32;34726;-92
2023/05/20 13:29:19;;;;;;;;;;;;;;;29.01;33.25;99464.03;4378379;32;32990;-96
2023/05/20 13:31:47;;;;;;;;;;;;;;;28.90;34.28;99467.63;4378153;32;33455;-94
2023/05/20 13:34:15;;;;;;;;;;;;;;;28.65;33.50;99457.31;4378401;32;34973;-93
2023/05/20 13:36:44;;;;;;;;;;;;;;;27.87;37.55;99446.69;4379949;32;34566;-94
2023/05/20 13:39:13;;;;;;;;;;;;;;;27.95;37.78;99462.97;4380612;32;34019;-93
2023/05/20 13:41:41;;;;;;;;;;;;;;;27.98;35.28;99460.06;4366975;32;32511;-96
2023/05/20 13:44:09;;;;;;;;;;;;;;;28.25;34.44;99464.12;4379933;32;34854;-96
2023/05/20 13:46:37;;;;;;;;;;;;;;;28.29;34.87;99462.91;4378407;32;34162;-94
2023/05/20 13:49:05;;;;;;;;;;;;;;;28.60;34.16;99457.69;4379342;32;32966;-95
2023/05/20 13:51:32;;;;;;;;;;;;;;;28.50;34.23;99449.56;4379780;32;34105;-96
2023/05/20 13:54:01;;;;;;;;;;;;;;;28.51;33.39;99456.59;4378705;32;35197;-96
2023/05/20 13:56:29;;;;;;;;;;;;;;;28.30;34.18;99447.69;4380531;32;35335;-95
2023/05/20 13:58:56;;;;;;;;;;;;;;;28.32;35.51;99448.41;4378405;32;33305;-94
2023/05/20 14:01:25;;;;;;;;;;;;;;;28.61;34.57;99442.47;4379244;32;33772;-94
2023/05/20 14:03:53;;;;;;;;;;;;;;;28.38;35.31;99439.88;4378667;32;34848;-96